sensor_id;sensor_type;location;lat;lon;timestamp;P1;durP1;ratioP1;P2;durP2;ratioP2
15297;SDS011;7750;48.796;9.026;2024-01-15T10:27:04;8.33;;;5.30;;
15297;SDS011;7750;48.796;9.026;2024-01-15T10:32:06;13.23;;;5.83;;
15297;SDS011;7750;48.796;9.026;2024-01-15T10:37:11;10.00;;;5.53;;
15297;SDS011;7750;48.796;9.026;2024-01-15T10:42:12;8.90;;;5.63;;
15297;SDS011;7750;48.796;9.026;2024-01-15T10:47:13;9.23;;;6.30;;
15297;SDS011;7750;48.796;9.026;2024-01-15T10:52:17;10.67;;;5.97;;
15297;SDS011;7750;48.796;9.026;2024-01-15T10:57:20;9.13;;;5.83;;
15297;SDS011;7750;48.796;9.026;2024-01-15T11:02:23;10.00;;;6.27;;
15297;SDS011;7750;48.796;9.026;2024-01-15T11:07:29;11.63;;;7.27;;
15297;SDS011;7750;48.796;9.026;2024-01-15T11:12:30;11.17;;;6.50;;
15297;SDS011;7750;48.796;9.026;2024-01-15T11:17:57;9.43;;;6.17;;
15297;SDS011;7750;48.796;9.026;2024-01-15T11:23:01;9.73;;;6.77;;
15297;SDS011;7750;48.796;9.026;2024-01-15T11:28:01;11.20;;;6.83;;
15297;SDS011;7750;48.796;9.026;2024-01-15T11:33:02;12.23;;;7.20;;
15297;SDS011;7750;48.796;9.026;2024-01-15T11:38:04;12.03;;;7.23;;
15297;SDS011;7750;48.796;9.026;2024-01-15T11:43:07;16.03;;;8.47;;
15297;SDS011;7750;48.796;9.026;2024-01-15T11:48:13;14.50;;;7.90;;
15297;SDS011;7750;48.796;9.026;2024-01-15T11:53:26;13.43;;;8.10;;
15297;SDS011;7750;48.796;9.026;2024-01-15T11:58:40;12.10;;;7.47;;
15297;SDS011;7750;48.796;9.026;2024-01-15T12:03:41;12.97;;;7.20;;
15297;SDS011;7750;48.796;9.026;2024-01-15T12:08:44;12.63;;;7.33;;
15297;SDS011;7750;48.796;9.026;2024-01-15T12:13:44;13.43;;;7.87;;
15297;SDS011;7750;48.796;9.026;2024-01-15T12:18:45;10.60;;;6.83;;
15297;SDS011;7750;48.796;9.026;2024-01-15T12:23:46;11.83;;;6.20;;
15297;SDS011;7750;48.796;9.026;2024-01-15T12:28:50;14.27;;;6.13;;
15297;SDS011;7750;48.796;9.026;2024-01-15T12:33:53;12.20;;;6.43;;
15297;SDS011;7750;48.796;9.026;2024-01-15T12:49:28;10.97;;;6.67;;
15297;SDS011;7750;48.796;9.026;2024-01-15T12:54:29;9.70;;;6.20;;
15297;SDS011;7750;48.796;9.026;2024-01-15T12:59:32;10.40;;;6.30;;
15297;SDS011;7750;48.796;9.026;2024-01-15T13:04:37;9.10;;;5.00;;
15297;SDS011;7750;48.796;9.026;2024-01-15T13:09:40;9.37;;;5.57;;
15297;SDS011;7750;48.796;9.026;2024-01-15T13:20:44;9.40;;;5.37;;
15297;SDS011;7750;48.796;9.026;2024-01-15T13:31:02;8.20;;;4.80;;
15297;SDS011;7750;48.796;9.026;2024-01-15T13:36:06;7.50;;;4.60;;
15297;SDS011;7750;48.796;9.026;2024-01-15T13:41:31;8.50;;;5.07;;
15297;SDS011;7750;48.796;9.026;2024-01-15T13:46:35;6.40;;;4.20;;
15297;SDS011;7750;48.796;9.026;2024-01-15T14:07:09;6.53;;;4.37;;
15297;SDS011;7750;48.796;9.026;2024-01-15T14:12:09;5.43;;;4.33;;
15297;SDS011;7750;48.796;9.026;2024-01-15T14:22:23;6.47;;;4.93;;
15297;SDS011;7750;48.796;9.026;2024-01-15T14:27:28;6.10;;;4.47;;
15297;SDS011;7750;48.796;9.026;2024-01-15T14:37:39;10.47;;;7.00;;
15297;SDS011;7750;48.796;9.026;2024-01-15T14:58:28;12.43;;;8.43;;
15297;SDS011;7750;48.796;9.026;2024-01-15T15:19:15;10.87;;;8.13;;
15297;SDS011;7750;48.796;9.026;2024-01-15T15:45:05;12.20;;;8.30;;
15297;SDS011;7750;48.796;9.026;2024-01-15T16:05:48;13.43;;;8.53;;
15297;SDS011;7750;48.796;9.026;2024-01-15T16:10:50;12.50;;;8.40;;
